Columbus, Ohio
Current Conditions -  °F | °C
As of 4:51 AM on Saturday 01 Nov 2014 (Local Time) from KCMH Reporting Station
Overcast Overcast  
Wind Chill: 28°   Ceiling: 1100
Heat Index: 38°   Visibility: 10mi
Dew Point: 37°   Wind: 18mph
Humidity: 97%   Direction: 340°NNW
Pressure: 29.97"   Gusts: 28mph
Location:  39.96°N, 83°W
Report Text: KCMH 010851Z 34016G24KT 10SM OVC011 03/03 A2997 RMK AO2 SLP152 60000 T00330028 51009 $
Loading
Personal Weather Stations






























Interactive Weather Map
Tropical Storm Tracking
New forecast layout! Learn more

10-Day Weather Forecast

Advertisements
Track Severe Weather on mobile